Time;durP1;ratioP1;P1;durP2;ratioP2;P2;SDS_P1;SDS_P2;PMS_P1;PMS_P2;Temp;Humidity;BMP_temperature;BMP_pressure;BME280_temperature;BME280_humidity;BME280_pressure;Samples;Min_cycle;Max_cycle;Signal;HPM_P1;HPM_P2
2020/12/23 00:00:50;;;;;;;175.80;102.32;;;11.10;99.90;;;;;;4941286;29;20049;-76
2020/12/23 00:03:16;;;;;;;175.52;104.95;;;11.00;99.90;;;;;;4942622;29;20035;-77
2020/12/23 00:05:42;;;;;;;188.93;104.03;;;10.90;99.90;;;;;;4929840;29;20110;-77
2020/12/23 00:08:07;;;;;;;191.48;101.82;;;10.80;99.90;;;;;;4934120;29;20032;-81
2020/12/23 00:10:34;;;;;;;183.18;104.93;;;10.80;99.90;;;;;;4941072;29;20082;-77
2020/12/23 00:13:00;;;;;;;185.70;104.75;;;10.70;99.90;;;;;;4947307;29;20059;-75
2020/12/23 00:15:26;;;;;;;187.35;105.03;;;10.90;99.90;;;;;;4945429;29;20062;-77
2020/12/23 00:17:52;;;;;;;190.57;101.50;;;11.00;99.90;;;;;;4942012;29;20067;-75
2020/12/23 00:20:18;;;;;;;185.82;105.75;;;11.00;99.90;;;;;;4928611;29;20035;-79
2020/12/23 00:22:44;;;;;;;193.40;105.53;;;10.80;99.90;;;;;;4947978;29;20498;-78
2020/12/23 00:25:09;;;;;;;191.50;106.75;;;11.00;99.90;;;;;;4940896;29;20098;-76
2020/12/23 00:27:35;;;;;;;194.18;103.70;;;10.80;99.90;;;;;;4946908;29;20158;-76
2020/12/23 00:30:02;;;;;;;183.88;100.72;;;10.80;99.90;;;;;;4932105;29;20024;-82
2020/12/23 00:32:29;;;;;;;161.40;96.50;;;10.70;99.90;;;;;;4942292;29;20020;-76
2020/12/23 00:34:56;;;;;;;156.60;92.38;;;10.60;99.90;;;;;;4941322;29;20036;-76
2020/12/23 00:37:22;;;;;;;162.45;97.45;;;10.50;99.90;;;;;;4937238;29;20078;-76
2020/12/23 00:39:48;;;;;;;162.73;94.18;;;10.50;99.90;;;;;;4936502;29;20028;-76
2020/12/23 00:42:14;;;;;;;165.82;93.32;;;10.40;99.90;;;;;;4947213;29;20453;-79
2020/12/23 00:44:39;;;;;;;168.77;98.05;;;10.40;99.90;;;;;;4944007;29;20118;-77
2020/12/23 00:47:05;;;;;;;163.52;93.50;;;10.30;99.90;;;;;;4928755;29;20328;-77
2020/12/23 00:49:31;;;;;;;165.20;95.03;;;10.40;99.90;;;;;;4948271;29;20090;-76
2020/12/23 00:51:57;;;;;;;161.43;94.90;;;10.40;99.90;;;;;;4941050;29;20055;-75
2020/12/23 00:54:22;;;;;;;162.48;100.03;;;10.40;99.90;;;;;;4953104;29;20047;-75
2020/12/23 00:56:48;;;;;;;163.35;97.07;;;10.30;99.90;;;;;;4970039;28;20035;-75
2020/12/23 00:59:14;;;;;;;173.88;98.05;;;10.40;99.90;;;;;;4974613;28;20042;-74
2020/12/23 01:01:40;;;;;;;177.90;99.68;;;10.40;99.90;;;;;;4965988;28;20016;-75
2020/12/23 01:04:06;;;;;;;178.02;103.35;;;10.40;99.90;;;;;;4968666;28;20035;-74
2020/12/23 01:06:32;;;;;;;200.18;107.28;;;10.30;99.90;;;;;;4947197;29;20032;-76
2020/12/23 01:08:57;;;;;;;190.45;104.10;;;10.30;99.90;;;;;;4939015;29;20042;-76
2020/12/23 01:11:23;;;;;;;183.18;100.20;;;10.40;99.90;;;;;;4936028;29;20122;-77
2020/12/23 01:13:49;;;;;;;199.52;106.63;;;10.30;99.90;;;;;;4949476;29;20179;-76
2020/12/23 01:16:24;;;;;;;198.15;104.07;;;10.30;99.90;;;;;;4958636;29;20079;-77
2020/12/23 01:18:50;;;;;;;183.93;107.05;;;10.30;99.90;;;;;;4941343;29;20019;-76
2020/12/23 01:21:16;;;;;;;197.02;106.63;;;10.30;99.90;;;;;;4970995;28;20042;-74
2020/12/23 01:23:43;;;;;;;185.40;105.93;;;10.20;99.90;;;;;;4963477;28;20036;-74
2020/12/23 01:26:09;;;;;;;207.55;108.05;;;10.30;99.90;;;;;;4969432;28;20028;-75
2020/12/23 01:28:35;;;;;;;196.70;108.82;;;10.20;99.90;;;;;;4963638;28;20023;-74
2020/12/23 01:31:01;;;;;;;203.50;105.65;;;10.30;99.90;;;;;;4953927;29;20067;-74
2020/12/23 01:33:27;;;;;;;201.85;110.22;;;10.30;99.90;;;;;;4961232;28;20019;-74
2020/12/23 01:35:52;;;;;;;221.48;111.50;;;10.20;99.90;;;;;;4967603;28;20142;-74
2020/12/23 01:38:18;;;;;;;222.35;115.43;;;10.20;99.90;;;;;;4937941;29;20047;-76
2020/12/23 01:40:44;;;;;;;224.02;113.20;;;10.20;99.90;;;;;;4956204;29;20442;-76
2020/12/23 01:43:10;;;;;;;228.38;112.70;;;10.30;99.90;;;;;;4953514;29;20553;-77
2020/12/23 01:45:36;;;;;;;226.13;113.45;;;10.40;99.90;;;;;;4949140;29;20597;-77
2020/12/23 01:48:17;;;;;;;210.80;111.45;;;10.30;99.90;;;;;;4927036;29;20123;-75
2020/12/23 01:50:43;;;;;;;217.82;110.57;;;10.30;99.90;;;;;;4945724;29;20091;-76
2020/12/23 01:53:09;;;;;;;222.35;116.80;;;10.30;99.90;;;;;;4939362;29;20091;-76
2020/12/23 01:55:35;;;;;;;224.65;113.90;;;10.20;99.90;;;;;;4947358;29;20142;-79
2020/12/23 01:58:02;;;;;;;239.77;118.28;;;10.10;99.90;;;;;;4938855;29;20140;-75
2020/12/23 02:00:28;;;;;;;234.63;115.32;;;10.00;99.90;;;;;;4945551;29;20035;-77
2020/12/23 02:02:58;;;;;;;222.43;114.55;;;10.10;99.90;;;;;;4938664;29;20163;-79
2020/12/23 02:05:23;;;;;;;230.55;115.15;;;10.10;99.90;;;;;;4952623;29;20078;-77
2020/12/23 02:07:50;;;;;;;230.27;113.75;;;10.10;99.90;;;;;;4945921;29;20511;-77
2020/12/23 02:10:17;;;;;;;229.68;111.82;;;10.10;99.90;;;;;;4938775;29;20119;-76
2020/12/23 02:12:42;;;;;;;229.00;114.68;;;10.10;99.90;;;;;;4946154;29;20027;-76
2020/12/23 02:15:13;;;;;;;221.38;113.45;;;10.10;99.90;;;;;;4936052;29;20513;-76
2020/12/23 02:17:39;;;;;;;211.63;113.40;;;10.10;99.90;;;;;;4948131;29;20035;-77
2020/12/23 02:20:07;;;;;;;247.50;120.65;;;10.10;99.90;;;;;;4944050;29;20494;-77
2020/12/23 02:22:33;;;;;;;236.25;114.80;;;10.00;99.90;;;;;;4948511;29;20122;-77
2020/12/23 02:24:59;;;;;;;223.02;112.80;;;10.10;99.90;;;;;;4933238;29;20038;-76
2020/12/23 02:27:25;;;;;;;224.32;114.38;;;10.20;99.90;;;;;;4949996;29;20016;-77
2020/12/23 02:29:53;;;;;;;217.23;111.45;;;10.20;99.90;;;;;;4923761;29;20038;-76
2020/12/23 02:32:20;;;;;;;218.05;113.90;;;10.10;99.90;;;;;;4922846;29;20031;-77
2020/12/23 02:34:46;;;;;;;230.18;112.25;;;10.10;99.90;;;;;;4929523;29;20037;-77
2020/12/23 02:37:13;;;;;;;218.13;111.75;;;10.00;99.90;;;;;;4944341;29;20032;-78
2020/12/23 02:39:43;;;;;;;231.40;117.82;;;10.00;99.90;;;;;;4934431;29;20043;-76
2020/12/23 02:42:09;;;;;;;222.73;110.47;;;10.00;99.90;;;;;;4926756;29;20114;-77
2020/12/23 02:44:36;;;;;;;226.25;116.03;;;10.00;99.90;;;;;;4944876;29;20032;-79
2020/12/23 02:47:10;;;;;;;237.57;116.38;;;10.10;99.90;;;;;;4922085;29;20505;-77
2020/12/23 02:49:36;;;;;;;230.98;114.78;;;10.10;99.90;;;;;;4944288;29;20510;-77
2020/12/23 02:52:03;;;;;;;227.88;114.82;;;10.10;99.90;;;;;;4946587;29;20079;-76
2020/12/23 02:54:29;;;;;;;233.60;115.22;;;10.10;99.90;;;;;;4945198;29;20562;-76
2020/12/23 02:56:54;;;;;;;232.43;113.05;;;10.10;99.90;;;;;;4939309;29;20106;-76
2020/12/23 02:59:20;;;;;;;217.35;109.22;;;10.10;99.90;;;;;;4932293;29;20028;-76
2020/12/23 03:01:47;;;;;;;222.40;112.03;;;10.10;99.90;;;;;;4930121;29;20031;-77
2020/12/23 03:04:12;;;;;;;218.48;114.03;;;10.10;99.90;;;;;;4943183;29;20111;-77
2020/12/23 03:06:39;;;;;;;228.40;115.95;;;10.20;99.90;;;;;;4939235;29;20116;-76
2020/12/23 03:09:08;;;;;;;229.38;111.97;;;10.20;99.90;;;;;;4940228;29;20114;-77
2020/12/23 03:11:34;;;;;;;212.00;108.78;;;10.20;99.90;;;;;;4923502;29;20032;-76
2020/12/23 03:14:00;;;;;;;224.23;109.18;;;10.20;99.90;;;;;;4944216;29;20620;-78
2020/12/23 03:16:26;;;;;;;204.70;102.20;;;10.10;99.90;;;;;;4936331;29;20031;-77
2020/12/23 03:18:53;;;;;;;200.20;103.47;;;10.20;99.90;;;;;;4950981;29;20043;-76
2020/12/23 03:21:19;;;;;;;201.77;105.00;;;10.10;99.90;;;;;;4948841;29;20034;-76
2020/12/23 03:23:45;;;;;;;205.73;103.28;;;10.00;99.90;;;;;;4946907;29;20036;-76
2020/12/23 03:26:11;;;;;;;202.25;103.60;;;10.10;99.90;;;;;;4955388;29;20090;-76
2020/12/23 03:28:36;;;;;;;194.07;101.50;;;10.10;99.90;;;;;;4925075;29;20402;-77
2020/12/23 03:31:03;;;;;;;203.27;99.53;;;10.00;99.90;;;;;;4944185;29;20115;-76
2020/12/23 03:33:29;;;;;;;199.27;100.60;;;10.10;99.90;;;;;;4948341;29;20023;-75
2020/12/23 03:35:57;;;;;;;213.23;106.13;;;10.10;99.90;;;;;;4944059;29;20153;-75
2020/12/23 03:38:22;;;;;;;206.43;103.13;;;10.10;99.90;;;;;;4950981;29;20040;-76
2020/12/23 03:40:48;;;;;;;201.55;99.10;;;10.10;99.90;;;;;;4946028;29;20030;-76
2020/12/23 03:43:14;;;;;;;197.07;100.72;;;10.10;99.90;;;;;;4929567;29;20019;-76
2020/12/23 03:45:41;;;;;;;191.98;100.22;;;10.10;99.90;;;;;;4951788;29;20032;-76
2020/12/23 03:48:06;;;;;;;196.27;96.72;;;10.10;99.90;;;;;;4933230;29;20459;-76
2020/12/23 03:50:32;;;;;;;189.23;93.18;;;10.10;99.90;;;;;;4940450;29;20106;-77
2020/12/23 03:52:59;;;;;;;189.52;93.05;;;10.20;99.90;;;;;;4946552;29;20038;-78
2020/12/23 03:55:25;;;;;;;190.13;95.80;;;10.30;99.90;;;;;;4948276;29;20054;-76
2020/12/23 03:57:50;;;;;;;170.15;91.85;;;10.30;99.90;;;;;;4950278;29;20031;-78
2020/12/23 04:00:16;;;;;;;191.45;93.10;;;10.30;99.90;;;;;;4945715;29;20023;-75
2020/12/23 04:02:42;;;;;;;174.23;93.07;;;10.30;99.90;;;;;;4930937;29;20117;-75
2020/12/23 04:05:08;;;;;;;177.70;95.18;;;10.20;99.90;;;;;;4945916;29;20064;-75
2020/12/23 04:07:34;;;;;;;187.25;95.50;;;10.30;99.90;;;;;;4937718;29;20035;-76
2020/12/23 04:10:01;;;;;;;179.57;94.93;;;10.30;99.90;;;;;;4925570;29;20704;-76
2020/12/23 04:12:26;;;;;;;177.63;92.47;;;10.30;99.90;;;;;;4936395;29;20035;-75
2020/12/23 04:14:52;;;;;;;176.00;95.30;;;10.30;99.90;;;;;;4923739;29;20034;-76
2020/12/23 04:17:18;;;;;;;179.82;94.72;;;10.30;99.90;;;;;;4934067;29;20039;-76
2020/12/23 04:19:44;;;;;;;188.20;96.55;;;10.40;99.90;;;;;;4940756;29;20038;-76
2020/12/23 04:22:10;;;;;;;182.80;95.07;;;10.30;99.90;;;;;;4943488;29;20031;-76
2020/12/23 04:24:37;;;;;;;199.30;99.45;;;10.30;99.90;;;;;;4931356;29;20402;-79
2020/12/23 04:27:03;;;;;;;197.98;100.35;;;10.20;99.90;;;;;;4943743;28;20023;-75
2020/12/23 04:29:29;;;;;;;192.57;97.53;;;10.30;99.90;;;;;;4939991;29;20027;-75
2020/12/23 04:31:55;;;;;;;182.90;95.55;;;10.30;99.90;;;;;;4929431;29;20024;-76
2020/12/23 04:34:21;;;;;;;183.07;97.47;;;10.30;99.90;;;;;;4924501;29;20039;-76
2020/12/23 04:36:46;;;;;;;204.82;102.32;;;10.20;99.90;;;;;;4947478;29;20019;-76
2020/12/23 04:39:12;;;;;;;192.32;96.20;;;10.30;99.90;;;;;;4934909;29;20089;-77
2020/12/23 04:41:38;;;;;;;198.85;98.30;;;10.30;99.90;;;;;;4946842;29;20019;-78
2020/12/23 04:44:07;;;;;;;182.93;92.65;;;10.30;99.90;;;;;;4922318;29;20046;-75
2020/12/23 04:46:41;;;;;;;175.98;91.25;;;10.30;99.90;;;;;;4922478;29;20066;-77
2020/12/23 04:49:08;;;;;;;178.77;92.70;;;10.40;99.90;;;;;;4946298;29;20059;-76
2020/12/23 04:51:39;;;;;;;177.93;91.40;;;10.40;99.90;;;;;;4948269;29;20059;-76
2020/12/23 04:54:06;;;;;;;163.60;88.55;;;10.40;99.90;;;;;;4932720;29;20510;-76
2020/12/23 04:56:33;;;;;;;173.77;90.95;;;10.30;99.90;;;;;;4947456;29;20486;-75
2020/12/23 04:59:00;;;;;;;174.65;91.13;;;10.20;99.90;;;;;;4936789;29;20051;-77
2020/12/23 05:01:26;;;;;;;172.63;88.28;;;10.20;99.90;;;;;;4928754;29;20039;-77
2020/12/23 05:03:53;;;;;;;173.25;88.85;;;10.20;99.90;;;;;;4930487;29;20059;-76
2020/12/23 05:06:20;;;;;;;185.43;89.22;;;10.20;99.90;;;;;;4952092;29;20046;-75
2020/12/23 05:08:46;;;;;;;173.57;88.75;;;10.30;99.90;;;;;;4943301;29;20039;-76
2020/12/23 05:11:14;;;;;;;176.93;87.68;;;10.30;99.90;;;;;;4945816;29;20012;-79
2020/12/23 05:13:40;;;;;;;177.48;92.88;;;10.20;99.90;;;;;;4953022;29;20023;-76
2020/12/23 05:16:10;;;;;;;178.55;93.25;;;10.20;99.90;;;;;;4941829;29;20030;-75
2020/12/23 05:18:39;;;;;;;176.98;90.47;;;10.20;99.90;;;;;;4944664;29;20031;-76
2020/12/23 05:21:14;;;;;;;189.48;96.57;;;10.10;99.90;;;;;;4944571;29;20601;-79
2020/12/23 05:23:47;;;;;;;189.55;95.55;;;10.00;99.90;;;;;;4946040;29;20028;-76
2020/12/23 05:26:14;;;;;;;191.00;94.15;;;10.10;99.90;;;;;;4951727;29;20023;-77
2020/12/23 05:28:42;;;;;;;187.98;92.53;;;10.10;99.90;;;;;;4943273;29;20495;-75
2020/12/23 05:31:14;;;;;;;184.57;93.72;;;10.10;99.90;;;;;;4939215;29;20032;-76
2020/12/23 05:33:43;;;;;;;;;;;10.00;99.90;;;;;;4943017;29;20047;-76
2020/12/23 05:36:17;;;;;;;178.00;86.57;;;10.20;99.90;;;;;;4944908;29;19907;-76
2020/12/23 05:38:43;;;;;;;195.88;93.72;;;10.30;99.90;;;;;;4926472;29;20040;-76
2020/12/23 05:41:11;;;;;;;183.30;89.70;;;10.30;99.90;;;;;;4947996;29;20031;-76
2020/12/23 05:43:37;;;;;;;226.20;105.75;;;10.20;99.90;;;;;;4954000;29;20128;-77
2020/12/23 05:46:08;;;;;;;189.15;91.07;;;10.20;99.90;;;;;;4945414;29;20060;-76
2020/12/23 05:48:37;;;;;;;182.52;89.88;;;10.20;99.90;;;;;;4939730;29;20027;-78
2020/12/23 05:51:05;;;;;;;185.38;93.60;;;10.30;99.90;;;;;;4946003;29;20442;-78
2020/12/23 05:53:35;;;;;;;184.27;92.10;;;10.20;99.90;;;;;;4946643;29;20324;-79
2020/12/23 05:56:05;;;;;;;187.10;95.07;;;10.10;99.90;;;;;;4951356;29;20027;-78
2020/12/23 05:58:33;;;;;;;191.15;93.45;;;10.20;99.90;;;;;;4933092;29;20051;-79
2020/12/23 06:01:03;;;;;;;196.68;95.30;;;10.20;99.90;;;;;;4946976;29;20023;-79
2020/12/23 06:03:29;;;;;;;173.20;93.50;;;10.20;99.90;;;;;;4924371;29;20039;-76
2020/12/23 06:06:02;;;;;;;197.25;97.00;;;10.10;99.90;;;;;;4943350;29;20028;-78
2020/12/23 06:08:30;;;;;;;176.70;91.07;;;10.10;99.90;;;;;;4944825;29;20131;-76
2020/12/23 06:11:31;;;;;;;185.13;89.75;;;10.20;99.90;;;;;;4942616;29;20514;-76
2020/12/23 06:13:56;;;;;;;159.50;89.53;;;10.20;99.90;;;;;;4945675;29;20537;-76
2020/12/23 06:16:30;;;;;;;176.70;92.22;;;10.30;99.90;;;;;;4953899;29;20032;-75
2020/12/23 06:19:00;;;;;;;180.45;91.13;;;10.20;99.90;;;;;;4945764;29;20062;-76
2020/12/23 06:21:27;;;;;;;175.88;88.13;;;10.30;99.90;;;;;;4951036;29;20027;-77
2020/12/23 06:24:11;;;;;;;177.52;87.90;;;10.30;99.90;;;;;;4945313;29;20020;-77
2020/12/23 06:26:39;;;;;;;170.30;87.85;;;10.30;99.90;;;;;;4927452;29;20040;-74
2020/12/23 06:29:08;;;;;;;163.65;84.70;;;10.30;99.90;;;;;;4950769;29;20051;-76
2020/12/23 06:31:45;;;;;;;159.55;82.32;;;10.30;99.90;;;;;;4950133;29;20051;-76
2020/12/23 06:34:17;;;;;;;149.80;79.88;;;10.30;99.90;;;;;;4946317;29;20121;-75
2020/12/23 06:36:47;;;;;;;163.55;87.55;;;10.20;99.90;;;;;;4955893;29;20094;-76
2020/12/23 06:39:19;;;;;;;162.68;82.43;;;10.20;99.90;;;;;;4930104;29;20036;-77
2020/12/23 06:41:49;;;;;;;165.27;85.72;;;10.20;99.90;;;;;;4950256;29;20372;-76
2020/12/23 06:44:15;;;;;;;154.23;78.55;;;10.10;99.90;;;;;;4948297;29;20020;-77
2020/12/23 06:46:59;;;;;;;149.38;81.82;;;10.10;99.90;;;;;;4930780;29;20067;-76
2020/12/23 06:49:43;;;;;;;152.75;83.15;;;10.10;99.90;;;;;;4938922;29;20019;-74
2020/12/23 06:52:29;;;;;;;160.07;84.65;;;10.20;99.90;;;;;;4942222;29;20027;-74
2020/12/23 06:55:01;;;;;;;160.57;83.85;;;10.20;99.90;;;;;;4952098;29;20027;-73
2020/12/23 06:57:38;;;;;;;162.77;83.20;;;10.20;99.90;;;;;;4948217;29;20034;-73
2020/12/23 07:00:08;;;;;;;154.32;84.80;;;10.20;99.90;;;;;;4935428;29;20098;-76
2020/12/23 07:02:45;;;;;;;176.13;82.85;;;10.20;99.90;;;;;;4944543;29;20034;-77
2020/12/23 07:05:12;;;;;;;158.35;83.18;;;10.30;99.90;;;;;;4930802;29;20055;-76
2020/12/23 07:07:40;;;;;;;156.25;82.53;;;10.40;99.90;;;;;;4952255;29;20035;-77
2020/12/23 07:10:13;;;;;;;152.88;78.43;;;10.40;99.90;;;;;;4930328;29;20031;-77
2020/12/23 07:12:46;;;;;;;153.05;79.20;;;10.30;99.90;;;;;;4925448;29;20035;-76
2020/12/23 07:15:13;;;;;;;150.95;77.32;;;10.40;99.90;;;;;;4936970;29;20122;-77
2020/12/23 07:17:41;;;;;;;143.95;79.55;;;10.40;99.90;;;;;;4941008;29;20721;-76
2020/12/23 07:20:08;;;;;;;142.80;80.78;;;10.40;99.90;;;;;;4939789;29;20114;-76
2020/12/23 07:22:34;;;;;;;135.48;77.00;;;10.40;99.90;;;;;;4942587;29;20043;-75
2020/12/23 07:25:00;;;;;;;147.48;78.25;;;10.40;99.90;;;;;;4944207;29;20173;-76
2020/12/23 07:27:27;;;;;;;143.27;77.30;;;10.50;99.90;;;;;;4924402;29;20023;-76
2020/12/23 07:30:04;;;;;;;134.25;74.70;;;10.60;99.90;;;;;;4944934;29;20111;-76
2020/12/23 07:32:30;;;;;;;135.23;75.47;;;10.70;99.90;;;;;;4934019;29;20020;-76
2020/12/23 07:34:58;;;;;;;138.32;79.22;;;10.80;99.90;;;;;;4951627;29;20045;-76
2020/12/23 07:37:25;;;;;;;130.98;73.20;;;10.70;99.90;;;;;;4952849;29;20113;-75
2020/12/23 07:39:50;;;;;;;127.75;72.70;;;10.80;99.90;;;;;;4950611;29;20023;-74
2020/12/23 07:42:20;;;;;;;132.15;74.82;;;10.90;99.90;;;;;;4948577;29;20027;-77
2020/12/23 07:44:53;;;;;;;128.23;75.75;;;10.80;99.90;;;;;;4927787;29;20059;-74
2020/12/23 07:47:23;;;;;;;136.63;73.38;;;10.80;99.90;;;;;;4922388;29;20023;-72
2020/12/23 07:50:02;;;;;;;138.07;76.90;;;10.70;99.90;;;;;;4939451;29;20035;-72
2020/12/23 07:52:28;;;;;;;148.45;81.70;;;10.60;99.90;;;;;;4934971;29;20497;-72
2020/12/23 07:54:55;;;;;;;140.32;78.30;;;10.40;99.90;;;;;;4929527;29;20110;-72
2020/12/23 07:57:28;;;;;;;160.75;81.85;;;10.30;99.90;;;;;;4948145;29;20039;-72
2020/12/23 08:00:00;;;;;;;148.55;80.25;;;10.30;99.90;;;;;;4938337;29;20120;-77
2020/12/23 08:02:26;;;;;;;;;;;10.30;99.90;;;;;;4945995;29;20046;-75
2020/12/23 08:04:52;;;;;;;148.35;79.07;;;10.50;99.90;;;;;;4948093;29;20277;-74
2020/12/23 08:07:27;;;;;;;136.27;75.28;;;10.70;99.90;;;;;;4952510;29;20028;-73
2020/12/23 08:09:54;;;;;;;120.85;70.30;;;10.70;99.90;;;;;;4938444;29;20038;-73
2020/12/23 08:12:21;;;;;;;140.77;76.93;;;10.70;99.90;;;;;;4942981;29;20027;-73
2020/12/23 08:14:48;;;;;;;136.00;76.45;;;10.70;99.90;;;;;;4931331;29;20023;-74
2020/12/23 08:17:21;;;;;;;154.63;91.28;;;10.60;99.90;;;;;;4929777;29;20024;-73
2020/12/23 08:20:00;;;;;;;131.93;76.18;;;10.50;99.90;;;;;;4936780;29;20402;-73
2020/12/23 08:22:26;;;;;;;137.85;79.45;;;10.60;99.90;;;;;;4958283;29;20020;-73
2020/12/23 08:25:01;;;;;;;125.10;71.75;;;10.70;99.90;;;;;;4948213;29;20083;-74
2020/12/23 08:27:27;;;;;;;130.20;72.20;;;10.70;99.90;;;;;;4940863;29;20055;-74
2020/12/23 08:29:53;;;;;;;129.98;76.38;;;10.70;99.90;;;;;;4942594;29;20024;-74
2020/12/23 08:32:24;;;;;;;125.53;73.72;;;10.60;99.90;;;;;;4954625;29;20039;-74
2020/12/23 08:34:52;;;;;;;131.57;76.65;;;10.70;99.90;;;;;;4945019;29;20039;-74
2020/12/23 08:37:23;;;;;;;127.30;73.25;;;10.60;99.90;;;;;;4943705;29;20479;-74
2020/12/23 08:39:56;;;;;;;136.68;78.10;;;10.60;99.90;;;;;;4946715;29;20028;-74
2020/12/23 08:42:22;;;;;;;123.45;74.45;;;10.60;99.90;;;;;;4934336;29;20046;-74
2020/12/23 08:44:56;;;;;;;124.47;73.78;;;10.70;99.90;;;;;;4944317;29;20537;-74
2020/12/23 08:47:24;;;;;;;124.20;73.22;;;10.70;99.90;;;;;;4910846;29;20511;-74
2020/12/23 08:49:55;;;;;;;119.20;71.30;;;10.80;99.90;;;;;;4940419;29;20039;-74
2020/12/23 08:52:23;;;;;;;114.68;69.38;;;10.90;99.90;;;;;;4951047;29;20140;-75
2020/12/23 08:54:49;;;;;;;117.10;72.07;;;10.90;99.90;;;;;;4929668;29;20082;-74
2020/12/23 08:57:26;;;;;;;110.03;69.07;;;10.90;99.90;;;;;;4930111;29;20517;-74
2020/12/23 08:59:54;;;;;;;105.82;70.75;;;11.20;99.90;;;;;;4946043;29;20111;-73
2020/12/23 09:02:20;;;;;;;120.07;72.28;;;11.20;99.90;;;;;;4928637;29;20036;-74
2020/12/23 09:04:46;;;;;;;100.80;64.65;;;11.30;99.90;;;;;;4940310;29;20039;-74
2020/12/23 09:07:18;;;;;;;109.93;67.68;;;11.30;99.90;;;;;;4934404;29;20034;-74
2020/12/23 09:09:44;;;;;;;117.18;71.40;;;11.30;99.90;;;;;;4930166;29;20035;-74
2020/12/23 09:12:18;;;;;;;113.00;71.53;;;11.30;99.90;;;;;;4937797;29;20091;-74
2020/12/23 09:14:44;;;;;;;115.55;72.03;;;11.20;99.90;;;;;;4949497;29;20034;-74
2020/12/23 09:17:19;;;;;;;115.38;73.43;;;11.20;99.90;;;;;;4946878;29;20028;-74
2020/12/23 09:20:02;;;;;;;119.75;76.88;;;11.20;99.90;;;;;;4930987;29;20472;-73
2020/12/23 09:22:36;;;;;;;119.78;74.18;;;11.20;99.90;;;;;;4924902;29;20024;-73
2020/12/23 09:25:26;;;;;;;110.93;71.80;;;11.20;99.90;;;;;;4948573;29;20035;-74
2020/12/23 09:28:12;;;;;;;115.95;73.70;;;11.10;99.90;;;;;;4946633;29;20115;-74
2020/12/23 09:30:46;;;;;;;128.60;76.72;;;11.20;99.90;;;;;;4944646;29;20031;-74
2020/12/23 09:33:14;;;;;;;117.30;75.30;;;11.10;99.90;;;;;;4947503;29;20082;-74
2020/12/23 09:35:43;;;;;;;128.65;78.20;;;11.20;99.90;;;;;;4946850;29;20164;-74
2020/12/23 09:38:28;;;;;;;121.65;76.57;;;11.10;99.90;;;;;;4942469;29;20051;-74
2020/12/23 09:40:59;;;;;;;111.43;71.28;;;11.10;99.90;;;;;;4924695;29;20043;-73
2020/12/23 09:43:30;;;;;;;120.68;76.30;;;11.20;99.90;;;;;;4949024;29;20035;-74
2020/12/23 09:45:57;;;;;;;112.17;75.20;;;11.50;99.90;;;;;;4950745;29;20039;-74
2020/12/23 09:48:25;;;;;;;122.53;77.55;;;11.30;99.90;;;;;;4955704;29;20285;-74
2020/12/23 09:50:55;;;;;;;127.05;78.78;;;11.30;99.90;;;;;;4923253;29;20095;-74
2020/12/23 09:53:26;;;;;;;113.65;74.60;;;11.50;99.90;;;;;;4930648;29;20040;-73
2020/12/23 09:55:52;;;;;;;114.82;75.53;;;11.70;99.90;;;;;;4942840;29;20043;-74
2020/12/23 09:58:19;;;;;;;116.30;73.63;;;11.60;99.90;;;;;;4956559;29;20027;-74
2020/12/23 10:00:51;;;;;;;125.53;75.75;;;11.60;99.90;;;;;;4949015;29;20023;-73
2020/12/23 10:03:16;;;;;;;112.72;72.63;;;11.60;99.90;;;;;;4935533;29;20114;-74
2020/12/23 10:05:42;;;;;;;110.72;72.57;;;11.60;99.90;;;;;;4950673;29;20058;-74
2020/12/23 10:08:08;;;;;;;112.78;75.70;;;11.60;99.90;;;;;;4950506;29;20023;-73
2020/12/23 10:10:37;;;;;;;122.97;75.68;;;11.60;99.90;;;;;;4957718;29;20035;-74
2020/12/23 10:13:04;;;;;;;115.88;72.53;;;11.70;99.90;;;;;;4919242;29;20057;-74
2020/12/23 10:15:29;;;;;;;111.15;73.50;;;11.70;99.90;;;;;;4951585;29;20070;-74
2020/12/23 10:17:55;;;;;;;107.15;72.72;;;11.70;99.90;;;;;;4949764;29;20386;-74
2020/12/23 10:20:21;;;;;;;111.43;69.55;;;11.70;99.90;;;;;;4946092;29;20035;-73
2020/12/23 10:22:47;;;;;;;111.28;70.28;;;11.70;99.90;;;;;;4949446;28;20027;-74
2020/12/23 10:25:12;;;;;;;101.45;69.82;;;11.80;99.90;;;;;;4949165;29;20067;-74
2020/12/23 10:27:38;;;;;;;108.00;72.15;;;11.80;99.90;;;;;;4942519;29;20061;-74
2020/12/23 10:30:07;;;;;;;113.05;70.80;;;11.70;99.90;;;;;;4931463;29;20126;-73
2020/12/23 10:32:34;;;;;;;107.20;70.30;;;11.70;99.90;;;;;;4938496;29;20106;-74
2020/12/23 10:35:00;;;;;;;114.38;72.32;;;11.70;99.90;;;;;;4943912;29;20572;-73
2020/12/23 10:37:26;;;;;;;115.75;74.78;;;11.70;99.90;;;;;;4947808;29;20039;-74
2020/12/23 10:39:52;;;;;;;102.03;68.38;;;11.50;99.90;;;;;;4944667;29;20036;-73
2020/12/23 10:42:18;;;;;;;120.60;72.60;;;11.40;99.90;;;;;;4947922;29;20054;-74
2020/12/23 10:44:44;;;;;;;106.40;76.20;;;11.50;99.90;;;;;;4956527;29;20062;-74
2020/12/23 10:47:12;;;;;;;115.65;78.20;;;11.50;99.90;;;;;;4945695;29;20020;-73
2020/12/23 10:49:38;;;;;;;113.30;75.57;;;11.40;99.90;;;;;;4943054;29;20039;-74
2020/12/23 10:52:04;;;;;;;113.07;76.63;;;11.50;99.90;;;;;;4944943;29;20023;-73
2020/12/23 10:54:30;;;;;;;118.85;74.90;;;11.50;99.90;;;;;;4944010;29;20073;-74
2020/12/23 10:56:56;;;;;;;104.75;71.50;;;11.30;99.90;;;;;;4943898;29;20032;-74
2020/12/23 10:59:22;;;;;;;112.50;78.38;;;11.30;99.90;;;;;;4938407;29;20035;-74
2020/12/23 11:01:56;;;;;;;110.00;72.82;;;11.40;99.90;;;;;;4945734;29;20083;-74
2020/12/23 11:04:23;;;;;;;118.05;77.03;;;11.40;99.90;;;;;;4944399;29;20058;-73
2020/12/23 11:06:50;;;;;;;128.05;79.38;;;11.40;99.90;;;;;;4945359;29;20023;-74
2020/12/23 11:09:19;;;;;;;113.90;79.47;;;11.40;99.90;;;;;;4943365;29;20055;-74
2020/12/23 11:11:52;;;;;;;114.95;78.20;;;11.50;99.90;;;;;;4953559;29;20070;-74
2020/12/23 11:14:19;;;;;;;119.97;78.53;;;11.40;99.90;;;;;;4947967;29;20031;-74
2020/12/23 11:16:51;;;;;;;121.10;78.00;;;11.40;99.90;;;;;;4945703;29;20036;-74
2020/12/23 11:19:20;;;;;;;122.80;79.10;;;11.60;99.90;;;;;;4953211;29;20023;-73
2020/12/23 11:21:47;;;;;;;115.57;77.38;;;11.60;99.90;;;;;;4942808;29;20035;-74
2020/12/23 11:24:13;;;;;;;119.13;79.90;;;11.60;99.90;;;;;;4944572;29;20030;-75
2020/12/23 11:26:39;;;;;;;118.90;79.57;;;11.50;99.90;;;;;;4945445;29;20039;-74
2020/12/23 11:29:05;;;;;;;128.95;79.75;;;11.50;99.90;;;;;;4941025;29;20328;-74
2020/12/23 11:31:31;;;;;;;108.15;74.13;;;11.60;99.90;;;;;;4940727;29;20382;-79
2020/12/23 11:33:57;;;;;;;123.43;76.93;;;11.60;99.90;;;;;;4930030;29;20027;-75
2020/12/23 11:36:23;;;;;;;117.40;77.90;;;11.60;99.90;;;;;;4943052;29;20024;-74
2020/12/23 11:38:49;;;;;;;120.03;79.05;;;11.50;99.90;;;;;;4924982;29;20061;-74
2020/12/23 11:41:15;;;;;;;125.60;80.25;;;11.50;99.90;;;;;;4952999;29;20039;-74
2020/12/23 11:43:41;;;;;;;122.40;78.38;;;11.50;99.90;;;;;;4945452;29;20091;-76
2020/12/23 11:46:08;;;;;;;123.55;76.72;;;11.60;99.90;;;;;;4933064;29;20039;-74
2020/12/23 11:48:34;;;;;;;122.38;75.82;;;11.60;99.90;;;;;;4944335;29;20055;-74
2020/12/23 11:51:01;;;;;;;124.47;79.85;;;11.70;99.90;;;;;;4943509;29;20027;-74
2020/12/23 11:53:27;;;;;;;117.82;78.90;;;11.70;99.90;;;;;;4927889;29;20019;-74
2020/12/23 11:55:53;;;;;;;107.93;75.63;;;11.70;99.90;;;;;;4945748;29;20031;-74
2020/12/23 11:58:19;;;;;;;118.97;76.90;;;11.60;99.90;;;;;;4944354;29;20031;-74
2020/12/23 12:00:44;;;;;;;109.55;75.95;;;11.50;99.90;;;;;;4954093;29;20045;-74
2020/12/23 12:03:10;;;;;;;122.00;77.70;;;11.60;99.90;;;;;;4953167;29;20387;-74
2020/12/23 12:05:36;;;;;;;114.93;76.75;;;11.60;99.90;;;;;;4947067;29;20457;-74
2020/12/23 12:08:05;;;;;;;113.93;75.10;;;11.60;99.90;;;;;;4944449;29;20031;-75
2020/12/23 12:10:30;;;;;;;109.80;73.55;;;11.70;99.90;;;;;;4942664;29;20027;-74
2020/12/23 12:12:57;;;;;;;108.93;74.45;;;11.70;99.90;;;;;;4943825;29;20375;-74
2020/12/23 12:15:22;;;;;;;113.75;76.40;;;11.70;99.90;;;;;;4933706;29;20034;-74
2020/12/23 12:17:48;;;;;;;110.50;75.22;;;11.60;99.90;;;;;;4945768;29;20453;-74
2020/12/23 12:20:14;;;;;;;120.45;78.22;;;11.60;99.90;;;;;;4944229;29;20019;-75